Shelby County Airport Alabaster US
ICAO: KEET
IATA: EET
Category: Medium
Scheduled Services: No

Elevation: 586 ft
TransAlt. 18000 ft.

Airport Communications:
BIRMINGHAM APP/DEP:123.8
ASOS:134.325
CTAF/UNICOM:122.7

KEET Zoom In..

Runways:

(A) RW 16 length 5000 ft width 75 ft
---- / hdg 160

(B) RW 34 length 5000 ft width 75 ft
---- / hdg 340

Location; KEET
Day. 22 / Time. 03.53 Zulu
* Altimeter: 30.12
* Temperature: 13° c. 55.4°f.
* Wind from: 120° Speed 04 kn.
Dewpoint: 07° c.
Visibility: 10 Statute Miles.
Clouds: Clear (automated report).

KEET 220353Z AUTO 12004KT 10SM CLR 13/07 A3012 RMK AO2 SLP197 T01330072


Wind From 120°
Speed 04 kn.

jpsM music video
CHECK IT OUT

jpsM - It Moves..

 
jpsmedia.com for Web Design  worldairports.se 2018   terms of use